sensor_id;sensor_type;location;lat;lon;timestamp;P1;durP1;ratioP1;P2;durP2;ratioP2
19384;SDS011;9828;54.122;17.974;2022-07-29T00:04:58;4.25;;;1.95;;
19384;SDS011;9828;54.122;17.974;2022-07-29T00:10:20;4.53;;;2.30;;
19384;SDS011;9828;54.122;17.974;2022-07-29T00:15:42;3.33;;;1.90;;
19384;SDS011;9828;54.122;17.974;2022-07-29T00:21:03;3.10;;;2.15;;
19384;SDS011;9828;54.122;17.974;2022-07-29T00:26:24;5.80;;;1.65;;
19384;SDS011;9828;54.122;17.974;2022-07-29T00:31:48;3.72;;;1.95;;
19384;SDS011;9828;54.122;17.974;2022-07-29T00:37:10;4.00;;;1.88;;
19384;SDS011;9828;54.122;17.974;2022-07-29T00:42:41;3.85;;;1.63;;
19384;SDS011;9828;54.122;17.974;2022-07-29T00:48:05;9.10;;;2.10;;
19384;SDS011;9828;54.122;17.974;2022-07-29T00:53:27;3.38;;;1.67;;
19384;SDS011;9828;54.122;17.974;2022-07-29T00:58:48;4.60;;;1.95;;
19384;SDS011;9828;54.122;17.974;2022-07-29T01:04:12;2.25;;;1.30;;
19384;SDS011;9828;54.122;17.974;2022-07-29T01:09:34;3.55;;;1.98;;
19384;SDS011;9828;54.122;17.974;2022-07-29T01:14:57;5.22;;;2.42;;
19384;SDS011;9828;54.122;17.974;2022-07-29T01:20:29;3.42;;;2.13;;
19384;SDS011;9828;54.122;17.974;2022-07-29T01:31:42;4.90;;;2.17;;
19384;SDS011;9828;54.122;17.974;2022-07-29T01:37:20;3.58;;;2.17;;
19384;SDS011;9828;54.122;17.974;2022-07-29T01:42:52;3.92;;;2.10;;
19384;SDS011;9828;54.122;17.974;2022-07-29T01:48:18;4.80;;;2.00;;
19384;SDS011;9828;54.122;17.974;2022-07-29T01:59:33;4.03;;;1.70;;
19384;SDS011;9828;54.122;17.974;2022-07-29T02:05:13;3.50;;;1.70;;
19384;SDS011;9828;54.122;17.974;2022-07-29T02:10:38;3.47;;;2.03;;
19384;SDS011;9828;54.122;17.974;2022-07-29T02:16:00;3.88;;;2.00;;
19384;SDS011;9828;54.122;17.974;2022-07-29T02:21:25;2.85;;;1.75;;
19384;SDS011;9828;54.122;17.974;2022-07-29T02:26:49;3.42;;;2.25;;
19384;SDS011;9828;54.122;17.974;2022-07-29T02:32:11;3.33;;;2.00;;
19384;SDS011;9828;54.122;17.974;2022-07-29T02:37:35;2.70;;;1.70;;
19384;SDS011;9828;54.122;17.974;2022-07-29T02:42:58;2.90;;;1.83;;
19384;SDS011;9828;54.122;17.974;2022-07-29T02:48:21;4.07;;;2.08;;
19384;SDS011;9828;54.122;17.974;2022-07-29T02:53:57;2.13;;;1.60;;
19384;SDS011;9828;54.122;17.974;2022-07-29T02:59:26;3.72;;;2.25;;
19384;SDS011;9828;54.122;17.974;2022-07-29T03:04:51;3.00;;;2.00;;
19384;SDS011;9828;54.122;17.974;2022-07-29T03:10:13;3.30;;;2.05;;
19384;SDS011;9828;54.122;17.974;2022-07-29T03:15:35;4.18;;;2.05;;
19384;SDS011;9828;54.122;17.974;2022-07-29T03:20:57;6.43;;;2.35;;
19384;SDS011;9828;54.122;17.974;2022-07-29T03:26:18;3.45;;;2.03;;
19384;SDS011;9828;54.122;17.974;2022-07-29T03:31:40;6.50;;;2.05;;
19384;SDS011;9828;54.122;17.974;2022-07-29T03:37:10;3.03;;;2.33;;
19384;SDS011;9828;54.122;17.974;2022-07-29T03:42:33;3.63;;;2.22;;
19384;SDS011;9828;54.122;17.974;2022-07-29T03:47:57;3.92;;;2.28;;
19384;SDS011;9828;54.122;17.974;2022-07-29T03:53:26;4.63;;;2.17;;
19384;SDS011;9828;54.122;17.974;2022-07-29T03:58:48;3.00;;;1.90;;
19384;SDS011;9828;54.122;17.974;2022-07-29T04:04:12;3.17;;;2.33;;
19384;SDS011;9828;54.122;17.974;2022-07-29T04:09:33;4.65;;;2.58;;
19384;SDS011;9828;54.122;17.974;2022-07-29T04:14:55;2.67;;;2.40;;
19384;SDS011;9828;54.122;17.974;2022-07-29T04:20:16;3.05;;;2.13;;
19384;SDS011;9828;54.122;17.974;2022-07-29T04:25:39;3.45;;;2.47;;
19384;SDS011;9828;54.122;17.974;2022-07-29T04:31:01;3.90;;;2.30;;
19384;SDS011;9828;54.122;17.974;2022-07-29T04:36:23;7.25;;;2.95;;
19384;SDS011;9828;54.122;17.974;2022-07-29T04:41:44;12.80;;;4.85;;
19384;SDS011;9828;54.122;17.974;2022-07-29T04:47:07;9.82;;;3.95;;
19384;SDS011;9828;54.122;17.974;2022-07-29T04:52:29;5.25;;;2.50;;
19384;SDS011;9828;54.122;17.974;2022-07-29T04:57:50;4.13;;;2.60;;
19384;SDS011;9828;54.122;17.974;2022-07-29T05:03:12;2.97;;;2.10;;
19384;SDS011;9828;54.122;17.974;2022-07-29T05:08:33;1.77;;;1.65;;
19384;SDS011;9828;54.122;17.974;2022-07-29T05:13:55;4.72;;;1.98;;
19384;SDS011;9828;54.122;17.974;2022-07-29T05:19:16;2.53;;;1.60;;
19384;SDS011;9828;54.122;17.974;2022-07-29T05:24:38;2.60;;;1.70;;
19384;SDS011;9828;54.122;17.974;2022-07-29T05:30:00;2.42;;;1.65;;
19384;SDS011;9828;54.122;17.974;2022-07-29T05:35:21;2.88;;;1.80;;
19384;SDS011;9828;54.122;17.974;2022-07-29T05:40:42;1.85;;;0.95;;
19384;SDS011;9828;54.122;17.974;2022-07-29T05:46:04;2.15;;;1.20;;
19384;SDS011;9828;54.122;17.974;2022-07-29T05:51:25;2.47;;;1.20;;
19384;SDS011;9828;54.122;17.974;2022-07-29T05:56:46;2.45;;;0.90;;
19384;SDS011;9828;54.122;17.974;2022-07-29T06:02:08;2.85;;;1.10;;
19384;SDS011;9828;54.122;17.974;2022-07-29T06:07:29;3.72;;;1.23;;
19384;SDS011;9828;54.122;17.974;2022-07-29T06:12:51;1.92;;;0.90;;
19384;SDS011;9828;54.122;17.974;2022-07-29T06:18:12;1.00;;;0.65;;
19384;SDS011;9828;54.122;17.974;2022-07-29T06:23:34;1.33;;;0.80;;
19384;SDS011;9828;54.122;17.974;2022-07-29T06:28:56;3.30;;;1.00;;
19384;SDS011;9828;54.122;17.974;2022-07-29T06:34:17;3.10;;;0.70;;
19384;SDS011;9828;54.122;17.974;2022-07-29T06:39:39;1.00;;;0.63;;
19384;SDS011;9828;54.122;17.974;2022-07-29T06:45:01;1.60;;;0.80;;
19384;SDS011;9828;54.122;17.974;2022-07-29T06:50:25;2.25;;;0.93;;
19384;SDS011;9828;54.122;17.974;2022-07-29T06:55:47;2.47;;;0.80;;
19384;SDS011;9828;54.122;17.974;2022-07-29T07:01:11;3.50;;;1.00;;
19384;SDS011;9828;54.122;17.974;2022-07-29T07:06:33;1.65;;;0.70;;
19384;SDS011;9828;54.122;17.974;2022-07-29T07:11:55;1.20;;;0.80;;
19384;SDS011;9828;54.122;17.974;2022-07-29T07:22:58;3.10;;;1.15;;
19384;SDS011;9828;54.122;17.974;2022-07-29T07:29:22;4.10;;;0.90;;
19384;SDS011;9828;54.122;17.974;2022-07-29T07:34:43;1.38;;;0.60;;
19384;SDS011;9828;54.122;17.974;2022-07-29T07:40:05;1.25;;;0.73;;
19384;SDS011;9828;54.122;17.974;2022-07-29T07:45:27;2.45;;;0.93;;
19384;SDS011;9828;54.122;17.974;2022-07-29T07:50:48;2.00;;;0.85;;
19384;SDS011;9828;54.122;17.974;2022-07-29T07:56:11;1.75;;;1.00;;
19384;SDS011;9828;54.122;17.974;2022-07-29T08:01:32;2.03;;;0.80;;
19384;SDS011;9828;54.122;17.974;2022-07-29T08:06:53;6.90;;;0.80;;
19384;SDS011;9828;54.122;17.974;2022-07-29T08:12:15;4.22;;;1.48;;
19384;SDS011;9828;54.122;17.974;2022-07-29T08:17:37;3.22;;;1.10;;
19384;SDS011;9828;54.122;17.974;2022-07-29T08:22:58;2.25;;;1.00;;
19384;SDS011;9828;54.122;17.974;2022-07-29T08:28:20;2.05;;;1.20;;
19384;SDS011;9828;54.122;17.974;2022-07-29T08:33:41;2.88;;;0.90;;
19384;SDS011;9828;54.122;17.974;2022-07-29T08:39:03;0.73;;;0.70;;
19384;SDS011;9828;54.122;17.974;2022-07-29T08:44:25;2.58;;;2.13;;
19384;SDS011;9828;54.122;17.974;2022-07-29T08:49:47;2.10;;;1.30;;
19384;SDS011;9828;54.122;17.974;2022-07-29T08:55:09;2.40;;;0.90;;
19384;SDS011;9828;54.122;17.974;2022-07-29T09:00:31;2.35;;;1.05;;
19384;SDS011;9828;54.122;17.974;2022-07-29T09:05:52;7.65;;;1.80;;
19384;SDS011;9828;54.122;17.974;2022-07-29T09:11:14;1.42;;;0.82;;
19384;SDS011;9828;54.122;17.974;2022-07-29T09:16:45;3.67;;;1.80;;
19384;SDS011;9828;54.122;17.974;2022-07-29T09:22:12;2.47;;;1.13;;
19384;SDS011;9828;54.122;17.974;2022-07-29T09:27:51;3.97;;;1.08;;
19384;SDS011;9828;54.122;17.974;2022-07-29T09:33:12;22.85;;;4.10;;
19384;SDS011;9828;54.122;17.974;2022-07-29T09:38:34;1.98;;;1.08;;
19384;SDS011;9828;54.122;17.974;2022-07-29T09:44:04;3.63;;;1.33;;
19384;SDS011;9828;54.122;17.974;2022-07-29T09:49:26;2.55;;;1.20;;
19384;SDS011;9828;54.122;17.974;2022-07-29T09:54:48;3.92;;;0.93;;
19384;SDS011;9828;54.122;17.974;2022-07-29T10:00:13;2.17;;;1.05;;
19384;SDS011;9828;54.122;17.974;2022-07-29T10:05:38;2.35;;;0.90;;
19384;SDS011;9828;54.122;17.974;2022-07-29T10:11:14;2.33;;;1.30;;
19384;SDS011;9828;54.122;17.974;2022-07-29T10:16:39;3.40;;;2.60;;
19384;SDS011;9828;54.122;17.974;2022-07-29T10:22:03;4.25;;;1.35;;
19384;SDS011;9828;54.122;17.974;2022-07-29T10:27:27;2.67;;;1.58;;
19384;SDS011;9828;54.122;17.974;2022-07-29T10:38:34;7.00;;;3.58;;
19384;SDS011;9828;54.122;17.974;2022-07-29T10:44:09;3.13;;;2.33;;
19384;SDS011;9828;54.122;17.974;2022-07-29T10:49:37;2.28;;;0.85;;
19384;SDS011;9828;54.122;17.974;2022-07-29T11:00:53;2.30;;;1.20;;
19384;SDS011;9828;54.122;17.974;2022-07-29T11:06:15;3.90;;;2.08;;
19384;SDS011;9828;54.122;17.974;2022-07-29T11:11:37;3.75;;;1.52;;
19384;SDS011;9828;54.122;17.974;2022-07-29T11:17:04;3.35;;;1.75;;
19384;SDS011;9828;54.122;17.974;2022-07-29T11:22:33;2.65;;;1.17;;
19384;SDS011;9828;54.122;17.974;2022-07-29T11:28:07;3.15;;;1.02;;
19384;SDS011;9828;54.122;17.974;2022-07-29T11:33:34;1.02;;;0.80;;
19384;SDS011;9828;54.122;17.974;2022-07-29T11:55:53;1.65;;;1.17;;
19384;SDS011;9828;54.122;17.974;2022-07-29T12:01:17;1.60;;;0.85;;
19384;SDS011;9828;54.122;17.974;2022-07-29T12:06:39;1.77;;;0.95;;
19384;SDS011;9828;54.122;17.974;2022-07-29T12:12:00;2.15;;;1.50;;
19384;SDS011;9828;54.122;17.974;2022-07-29T12:17:25;2.40;;;1.05;;
19384;SDS011;9828;54.122;17.974;2022-07-29T12:22:50;0.70;;;0.70;;
19384;SDS011;9828;54.122;17.974;2022-07-29T12:28:18;3.42;;;0.80;;
19384;SDS011;9828;54.122;17.974;2022-07-29T12:33:42;3.33;;;1.10;;
19384;SDS011;9828;54.122;17.974;2022-07-29T12:39:04;1.10;;;1.00;;
19384;SDS011;9828;54.122;17.974;2022-07-29T12:50:55;1.58;;;0.63;;
19384;SDS011;9828;54.122;17.974;2022-07-29T12:56:19;5.65;;;2.10;;
19384;SDS011;9828;54.122;17.974;2022-07-29T13:01:52;1.75;;;0.80;;
19384;SDS011;9828;54.122;17.974;2022-07-29T13:07:14;1.77;;;0.65;;
19384;SDS011;9828;54.122;17.974;2022-07-29T13:13:07;2.92;;;0.77;;
19384;SDS011;9828;54.122;17.974;2022-07-29T13:18:32;4.88;;;2.45;;
19384;SDS011;9828;54.122;17.974;2022-07-29T13:23:56;3.63;;;2.65;;
19384;SDS011;9828;54.122;17.974;2022-07-29T13:29:18;2.67;;;2.00;;
19384;SDS011;9828;54.122;17.974;2022-07-29T13:34:39;6.55;;;2.30;;
19384;SDS011;9828;54.122;17.974;2022-07-29T13:40:02;3.83;;;1.50;;
19384;SDS011;9828;54.122;17.974;2022-07-29T13:45:25;1.52;;;0.90;;
19384;SDS011;9828;54.122;17.974;2022-07-29T13:50:46;2.13;;;0.95;;
19384;SDS011;9828;54.122;17.974;2022-07-29T13:56:08;3.83;;;0.85;;
19384;SDS011;9828;54.122;17.974;2022-07-29T14:01:30;2.88;;;1.05;;
19384;SDS011;9828;54.122;17.974;2022-07-29T14:06:51;3.72;;;2.00;;
19384;SDS011;9828;54.122;17.974;2022-07-29T14:12:13;1.70;;;1.17;;
19384;SDS011;9828;54.122;17.974;2022-07-29T14:17:34;2.30;;;1.10;;
19384;SDS011;9828;54.122;17.974;2022-07-29T14:22:56;1.23;;;0.90;;
19384;SDS011;9828;54.122;17.974;2022-07-29T14:28:17;2.25;;;1.00;;
19384;SDS011;9828;54.122;17.974;2022-07-29T14:38:59;2.70;;;1.42;;
19384;SDS011;9828;54.122;17.974;2022-07-29T14:44:20;1.42;;;0.93;;
19384;SDS011;9828;54.122;17.974;2022-07-29T14:49:42;0.77;;;0.70;;
19384;SDS011;9828;54.122;17.974;2022-07-29T14:55:04;3.30;;;1.67;;
19384;SDS011;9828;54.122;17.974;2022-07-29T15:00:26;4.25;;;1.55;;
19384;SDS011;9828;54.122;17.974;2022-07-29T15:05:47;1.70;;;1.52;;
19384;SDS011;9828;54.122;17.974;2022-07-29T15:11:09;2.30;;;1.15;;
19384;SDS011;9828;54.122;17.974;2022-07-29T15:16:32;4.28;;;2.05;;
19384;SDS011;9828;54.122;17.974;2022-07-29T15:21:55;1.95;;;1.15;;
19384;SDS011;9828;54.122;17.974;2022-07-29T15:27:19;2.22;;;1.55;;
19384;SDS011;9828;54.122;17.974;2022-07-29T15:32:40;3.15;;;1.15;;
19384;SDS011;9828;54.122;17.974;2022-07-29T15:38:01;1.65;;;0.73;;
19384;SDS011;9828;54.122;17.974;2022-07-29T15:43:23;2.50;;;1.27;;
19384;SDS011;9828;54.122;17.974;2022-07-29T15:48:45;1.27;;;0.90;;
19384;SDS011;9828;54.122;17.974;2022-07-29T15:54:06;1.33;;;0.80;;
19384;SDS011;9828;54.122;17.974;2022-07-29T15:59:28;1.42;;;0.70;;
19384;SDS011;9828;54.122;17.974;2022-07-29T16:04:49;1.27;;;0.80;;
19384;SDS011;9828;54.122;17.974;2022-07-29T16:10:11;2.88;;;0.95;;
19384;SDS011;9828;54.122;17.974;2022-07-29T16:15:32;5.53;;;1.00;;
19384;SDS011;9828;54.122;17.974;2022-07-29T16:20:54;0.98;;;0.93;;
19384;SDS011;9828;54.122;17.974;2022-07-29T16:26:15;3.17;;;1.05;;
19384;SDS011;9828;54.122;17.974;2022-07-29T16:31:37;2.17;;;1.30;;
19384;SDS011;9828;54.122;17.974;2022-07-29T16:36:58;1.15;;;0.85;;
19384;SDS011;9828;54.122;17.974;2022-07-29T16:42:20;1.80;;;1.05;;
19384;SDS011;9828;54.122;17.974;2022-07-29T16:47:56;2.83;;;1.33;;
19384;SDS011;9828;54.122;17.974;2022-07-29T16:53:19;1.10;;;0.98;;
19384;SDS011;9828;54.122;17.974;2022-07-29T16:58:40;1.00;;;0.90;;
19384;SDS011;9828;54.122;17.974;2022-07-29T17:04:02;1.73;;;0.98;;
19384;SDS011;9828;54.122;17.974;2022-07-29T17:09:27;1.13;;;1.00;;
19384;SDS011;9828;54.122;17.974;2022-07-29T17:14:48;1.83;;;1.38;;
19384;SDS011;9828;54.122;17.974;2022-07-29T17:20:10;1.38;;;1.02;;
19384;SDS011;9828;54.122;17.974;2022-07-29T17:25:31;2.03;;;0.80;;
19384;SDS011;9828;54.122;17.974;2022-07-29T17:30:54;5.05;;;1.13;;
19384;SDS011;9828;54.122;17.974;2022-07-29T17:36:16;2.20;;;1.35;;
19384;SDS011;9828;54.122;17.974;2022-07-29T17:41:44;3.22;;;1.30;;
19384;SDS011;9828;54.122;17.974;2022-07-29T17:47:06;2.05;;;1.13;;
19384;SDS011;9828;54.122;17.974;2022-07-29T17:52:28;1.58;;;1.10;;
19384;SDS011;9828;54.122;17.974;2022-07-29T17:57:49;4.35;;;1.33;;
19384;SDS011;9828;54.122;17.974;2022-07-29T18:03:11;2.08;;;1.10;;
19384;SDS011;9828;54.122;17.974;2022-07-29T18:08:32;2.92;;;1.50;;
19384;SDS011;9828;54.122;17.974;2022-07-29T18:13:54;3.80;;;1.60;;
19384;SDS011;9828;54.122;17.974;2022-07-29T18:19:15;2.47;;;1.50;;
19384;SDS011;9828;54.122;17.974;2022-07-29T18:24:36;2.15;;;0.88;;
19384;SDS011;9828;54.122;17.974;2022-07-29T18:29:58;0.88;;;0.80;;
19384;SDS011;9828;54.122;17.974;2022-07-29T18:35:19;1.73;;;1.02;;
19384;SDS011;9828;54.122;17.974;2022-07-29T18:40:40;3.17;;;1.60;;
19384;SDS011;9828;54.122;17.974;2022-07-29T18:46:02;2.78;;;1.17;;
19384;SDS011;9828;54.122;17.974;2022-07-29T18:51:26;2.28;;;1.20;;
19384;SDS011;9828;54.122;17.974;2022-07-29T18:56:47;3.20;;;1.27;;
19384;SDS011;9828;54.122;17.974;2022-07-29T19:02:09;2.03;;;1.30;;
19384;SDS011;9828;54.122;17.974;2022-07-29T19:07:30;2.22;;;1.60;;
19384;SDS011;9828;54.122;17.974;2022-07-29T19:12:52;4.40;;;2.28;;
19384;SDS011;9828;54.122;17.974;2022-07-29T19:18:14;2.67;;;1.70;;
19384;SDS011;9828;54.122;17.974;2022-07-29T19:23:35;2.38;;;1.80;;
19384;SDS011;9828;54.122;17.974;2022-07-29T19:28:57;2.42;;;1.85;;
19384;SDS011;9828;54.122;17.974;2022-07-29T19:34:18;2.35;;;1.42;;
19384;SDS011;9828;54.122;17.974;2022-07-29T19:39:39;4.57;;;1.75;;
19384;SDS011;9828;54.122;17.974;2022-07-29T19:45:01;3.65;;;1.40;;
19384;SDS011;9828;54.122;17.974;2022-07-29T19:50:22;3.60;;;1.73;;
19384;SDS011;9828;54.122;17.974;2022-07-29T19:55:45;2.42;;;1.77;;
19384;SDS011;9828;54.122;17.974;2022-07-29T20:01:06;1.75;;;1.40;;
19384;SDS011;9828;54.122;17.974;2022-07-29T20:06:28;2.83;;;1.65;;
19384;SDS011;9828;54.122;17.974;2022-07-29T20:11:50;2.40;;;1.52;;
19384;SDS011;9828;54.122;17.974;2022-07-29T20:17:11;3.08;;;1.77;;
19384;SDS011;9828;54.122;17.974;2022-07-29T20:22:32;3.97;;;1.67;;
19384;SDS011;9828;54.122;17.974;2022-07-29T20:27:57;3.83;;;1.88;;
19384;SDS011;9828;54.122;17.974;2022-07-29T20:33:18;2.03;;;1.45;;
19384;SDS011;9828;54.122;17.974;2022-07-29T20:51:39;2.58;;;1.40;;
19384;SDS011;9828;54.122;17.974;2022-07-29T20:57:01;2.53;;;1.15;;
19384;SDS011;9828;54.122;17.974;2022-07-29T21:02:22;2.45;;;1.20;;
19384;SDS011;9828;54.122;17.974;2022-07-29T21:07:44;1.92;;;1.00;;
19384;SDS011;9828;54.122;17.974;2022-07-29T21:13:05;2.58;;;1.52;;
19384;SDS011;9828;54.122;17.974;2022-07-29T21:18:27;1.45;;;1.17;;
19384;SDS011;9828;54.122;17.974;2022-07-29T21:23:52;4.72;;;1.52;;
19384;SDS011;9828;54.122;17.974;2022-07-29T21:29:13;1.58;;;1.27;;
19384;SDS011;9828;54.122;17.974;2022-07-29T21:34:35;2.28;;;1.50;;
19384;SDS011;9828;54.122;17.974;2022-07-29T21:39:56;2.38;;;1.83;;
19384;SDS011;9828;54.122;17.974;2022-07-29T21:45:17;2.58;;;2.03;;
19384;SDS011;9828;54.122;17.974;2022-07-29T21:50:39;3.45;;;2.03;;
19384;SDS011;9828;54.122;17.974;2022-07-29T21:56:00;3.50;;;1.42;;
19384;SDS011;9828;54.122;17.974;2022-07-29T22:01:22;2.20;;;1.55;;
19384;SDS011;9828;54.122;17.974;2022-07-29T22:06:43;2.17;;;1.48;;
19384;SDS011;9828;54.122;17.974;2022-07-29T22:12:05;2.42;;;1.75;;
19384;SDS011;9828;54.122;17.974;2022-07-29T22:17:26;1.13;;;1.00;;
19384;SDS011;9828;54.122;17.974;2022-07-29T22:22:48;2.08;;;1.30;;
19384;SDS011;9828;54.122;17.974;2022-07-29T22:28:09;2.72;;;1.80;;
19384;SDS011;9828;54.122;17.974;2022-07-29T22:33:31;2.15;;;1.63;;
19384;SDS011;9828;54.122;17.974;2022-07-29T22:38:52;1.48;;;1.20;;
19384;SDS011;9828;54.122;17.974;2022-07-29T22:44:13;1.90;;;1.25;;
19384;SDS011;9828;54.122;17.974;2022-07-29T22:49:35;2.70;;;1.33;;
19384;SDS011;9828;54.122;17.974;2022-07-29T22:54:56;2.15;;;1.50;;
19384;SDS011;9828;54.122;17.974;2022-07-29T23:00:17;2.00;;;1.35;;
19384;SDS011;9828;54.122;17.974;2022-07-29T23:05:38;3.35;;;1.45;;
19384;SDS011;9828;54.122;17.974;2022-07-29T23:11:00;1.45;;;1.27;;
19384;SDS011;9828;54.122;17.974;2022-07-29T23:16:21;1.30;;;1.20;;
19384;SDS011;9828;54.122;17.974;2022-07-29T23:21:42;1.92;;;1.40;;
19384;SDS011;9828;54.122;17.974;2022-07-29T23:27:04;2.22;;;1.00;;
19384;SDS011;9828;54.122;17.974;2022-07-29T23:32:25;1.70;;;1.30;;
19384;SDS011;9828;54.122;17.974;2022-07-29T23:37:47;3.78;;;1.13;;
19384;SDS011;9828;54.122;17.974;2022-07-29T23:43:08;2.13;;;1.20;;
19384;SDS011;9828;54.122;17.974;2022-07-29T23:48:30;2.80;;;1.20;;
19384;SDS011;9828;54.122;17.974;2022-07-29T23:53:51;2.45;;;1.10;;
19384;SDS011;9828;54.122;17.974;2022-07-29T23:59:13;4.32;;;1.35;;
